createdAt,value
2018-07-21T00:00:26.170Z,100507.33
2018-07-21T00:02:54.652Z,100508.66
2018-07-21T00:05:23.134Z,100505.07
2018-07-21T00:07:52.827Z,100509.83
2018-07-21T00:10:22.763Z,100506.65
2018-07-21T00:12:51.793Z,100509.19
2018-07-21T00:15:20.704Z,100509.61
2018-07-21T00:17:49.514Z,100506.56
2018-07-21T00:20:17.955Z,100506.19
2018-07-21T00:22:46.842Z,100508.49
2018-07-21T00:25:15.700Z,100513.05
2018-07-21T00:27:44.273Z,100506.45
2018-07-21T00:30:13.205Z,100513.22
2018-07-21T00:32:41.834Z,100507.45
2018-07-21T00:35:10.342Z,100505.37
2018-07-21T00:37:39.569Z,100501.99
2018-07-21T00:40:08.324Z,100498.95
2018-07-21T00:42:36.809Z,100499.41
2018-07-21T00:45:05.958Z,100491.94
2018-07-21T00:47:34.925Z,100496.03
2018-07-21T00:50:04.061Z,100492.52
2018-07-21T00:52:32.885Z,100499.29
2018-07-21T00:55:01.646Z,100486.97
2018-07-21T00:57:30.132Z,100489.77
2018-07-21T00:59:59.498Z,100494.02
2018-07-21T01:02:28.424Z,100498.26
2018-07-21T01:04:57.137Z,100500.59
2018-07-21T01:07:26.780Z,100498.11
2018-07-21T01:09:55.285Z,100495.18
2018-07-21T01:12:24.033Z,100498.38
2018-07-21T01:14:52.930Z,100498.05
2018-07-21T01:17:21.701Z,100503.03
2018-07-21T01:19:50.366Z,100499.53
2018-07-21T01:22:19.287Z,100497.39
2018-07-21T01:24:48.046Z,100500.59
2018-07-21T01:27:16.825Z,100496.70
2018-07-21T01:29:45.665Z,100496.24
2018-07-21T01:32:14.717Z,100498.03
2018-07-21T01:34:43.501Z,100501.09
2018-07-21T01:37:12.220Z,100497.05
2018-07-21T01:39:40.657Z,100498.73
2018-07-21T01:42:09.754Z,100488.88
2018-07-21T01:44:38.908Z,100498.54
2018-07-21T01:47:07.410Z,100497.63
2018-07-21T01:49:36.401Z,100502.96
2018-07-21T01:52:05.267Z,100499.41
2018-07-21T01:54:33.730Z,100498.92
2018-07-21T01:57:02.209Z,100505.14
2018-07-21T01:59:31.332Z,100502.43
2018-07-21T02:01:59.832Z,100503.31
2018-07-21T02:04:28.708Z,100505.98
2018-07-21T02:06:57.668Z,100498.46
2018-07-21T02:09:26.513Z,100507.35
2018-07-21T02:11:55.002Z,100507.69
2018-07-21T02:14:24.141Z,100501.86
2018-07-21T02:16:53.166Z,100508.99
2018-07-21T02:19:21.679Z,100509.91
2018-07-21T02:21:50.399Z,100507.73
2018-07-21T02:24:18.873Z,100519.30
2018-07-21T02:26:47.350Z,100509.11
2018-07-21T02:29:16.414Z,100522.98
2018-07-21T02:31:45.452Z,100517.65
2018-07-21T02:34:13.917Z,100510.48
2018-07-21T02:36:42.828Z,100515.36
2018-07-21T02:39:12.804Z,100523.75
2018-07-21T02:41:41.740Z,100521.05
2018-07-21T02:44:10.409Z,100526.88
2018-07-21T02:46:38.966Z,100530.05
2018-07-21T02:49:07.437Z,100527.84
2018-07-21T02:51:36.176Z,100526.92
2018-07-21T02:54:04.805Z,100524.67
2018-07-21T02:56:33.650Z,100523.30
2018-07-21T02:59:02.377Z,100523.75
2018-07-21T03:01:30.825Z,100526.92
2018-07-21T03:03:59.613Z,100532.41
2018-07-21T03:06:28.400Z,100532.48
2018-07-21T03:08:56.874Z,100535.23
2018-07-21T03:11:25.357Z,100534.81
2018-07-21T03:13:56.649Z,100531.33
2018-07-21T03:16:25.298Z,100531.41
2018-07-21T03:18:54.525Z,100530.45
2018-07-21T03:21:23.146Z,100534.88
2018-07-21T03:23:51.995Z,100535.83
2018-07-21T03:26:20.838Z,100536.36
2018-07-21T03:28:49.366Z,100531.41
2018-07-21T03:31:18.774Z,100532.74
2018-07-21T03:33:47.925Z,100536.81
2018-07-21T03:36:16.399Z,100530.63
2018-07-21T03:38:45.009Z,100529.79
2018-07-21T03:41:13.904Z,100525.37
2018-07-21T03:43:42.381Z,100526.31
2018-07-21T03:46:10.845Z,100528.95
2018-07-21T03:48:39.944Z,100526.77
2018-07-21T03:51:08.809Z,100523.22
2018-07-21T03:53:37.387Z,100521.05
2018-07-21T03:56:06.398Z,100521.02
2018-07-21T03:58:35.096Z,100515.25
2018-07-21T04:01:03.605Z,100517.43
2018-07-21T04:03:32.686Z,100513.42
2018-07-21T04:06:01.575Z,100511.64
2018-07-21T04:08:30.725Z,100514.27
2018-07-21T04:10:59.842Z,100505.88
2018-07-21T04:13:28.285Z,100504.05
2018-07-21T04:15:56.745Z,100502.64
2018-07-21T04:18:25.729Z,100508.75
2018-07-21T04:20:54.181Z,100512.27
2018-07-21T04:23:23.189Z,100521.64
2018-07-21T04:25:52.433Z,100520.77
2018-07-21T04:28:21.010Z,100525.26
2018-07-21T04:30:50.121Z,100526.70
2018-07-21T04:33:19.389Z,100529.86
2018-07-21T04:35:47.846Z,100534.29
2018-07-21T04:38:16.509Z,100537.38
2018-07-21T04:40:45.376Z,100528.98
2018-07-21T04:43:13.813Z,100530.31
2018-07-21T04:45:42.271Z,100530.74
2018-07-21T04:48:11.559Z,100524.98
2018-07-21T04:50:40.018Z,100532.56
2018-07-21T04:53:08.958Z,100530.84
2018-07-21T04:55:38.441Z,100524.28
2018-07-21T04:58:06.964Z,100524.28
2018-07-21T05:00:35.448Z,100532.77
2018-07-21T05:03:04.472Z,100531.02
2018-07-21T05:05:32.977Z,100532.81
2018-07-21T05:08:01.729Z,100531.55
2018-07-21T05:10:30.954Z,100533.33
2018-07-21T05:12:59.653Z,100535.09
2018-07-21T05:15:28.345Z,100531.90
2018-07-21T05:17:56.945Z,100530.98
2018-07-21T05:20:25.706Z,100529.69
2018-07-21T05:22:54.161Z,100531.55
2018-07-21T05:25:23.289Z,100531.55
2018-07-21T05:27:53.046Z,100529.30
2018-07-21T05:30:22.009Z,100529.23
2018-07-21T05:32:51.170Z,100528.31
2018-07-21T05:35:20.110Z,100528.67
2018-07-21T05:37:48.989Z,100533.52
2018-07-21T05:40:17.875Z,100533.41
2018-07-21T05:42:46.617Z,100528.45
2018-07-21T05:45:15.151Z,100524.84
2018-07-21T05:47:44.010Z,100526.55
2018-07-21T05:50:12.613Z,100518.48
2018-07-21T05:52:41.433Z,100511.73
2018-07-21T05:55:10.288Z,100512.57
2018-07-21T05:57:38.776Z,100511.66
2018-07-21T06:00:10.622Z,100512.08
2018-07-21T06:02:40.086Z,100516.92
2018-07-21T06:05:08.526Z,100512.38
2018-07-21T06:07:37.201Z,100514.14
2018-07-21T06:10:06.010Z,100509.25
2018-07-21T06:12:34.565Z,100514.52
2018-07-21T06:15:04.129Z,100510.90
2018-07-21T06:17:33.370Z,100525.59
2018-07-21T06:20:02.077Z,100520.73
2018-07-21T06:22:31.109Z,100524.78
2018-07-21T06:25:00.069Z,100528.14
2018-07-21T06:27:28.520Z,100523.11
2018-07-21T06:29:57.212Z,100526.97
2018-07-21T06:32:26.083Z,100526.42
2018-07-21T06:34:54.546Z,100531.05
2018-07-21T06:37:24.075Z,100528.56
2018-07-21T06:39:54.029Z,100525.23
2018-07-21T06:42:22.953Z,100530.42
2018-07-21T06:44:51.447Z,100531.98
2018-07-21T06:47:20.522Z,100540.55
2018-07-21T06:49:49.020Z,100539.42
2018-07-21T06:52:17.513Z,100541.92
2018-07-21T06:54:46.416Z,100542.26
2018-07-21T06:57:15.134Z,100544.47
2018-07-21T06:59:43.638Z,100539.09
2018-07-21T07:02:12.765Z,100532.77
2018-07-21T07:04:41.565Z,100543.72
2018-07-21T07:07:10.009Z,100535.44
2018-07-21T07:09:38.935Z,100527.94
2018-07-21T07:12:08.856Z,100531.64
2018-07-21T07:14:37.309Z,100536.73
2018-07-21T07:17:06.440Z,100532.99
2018-07-21T07:19:35.211Z,100534.33
2018-07-21T07:22:03.717Z,100535.20
2018-07-21T07:24:32.477Z,100545.50
2018-07-21T07:27:01.307Z,100545.54
2018-07-21T07:29:29.775Z,100545.42
2018-07-21T07:31:58.289Z,100538.87
2018-07-21T07:34:27.016Z,100535.41
2018-07-21T07:36:55.473Z,100535.87
2018-07-21T07:39:24.519Z,100536.24
2018-07-21T07:41:53.388Z,100539.66
2018-07-21T07:44:22.073Z,100541.25
2018-07-21T07:46:51.654Z,100542.63
2018-07-21T07:49:20.445Z,100540.37
2018-07-21T07:51:49.357Z,100540.23
2018-07-21T07:54:18.114Z,100542.31
2018-07-21T07:56:46.589Z,100540.36
2018-07-21T07:59:15.412Z,100539.52
2018-07-21T08:01:44.375Z,100545.16
2018-07-21T08:04:12.821Z,100544.13
2018-07-21T08:06:41.774Z,100543.38
2018-07-21T08:09:12.301Z,100538.37
2018-07-21T08:11:41.553Z,100539.56
2018-07-21T08:14:10.025Z,100536.23
2018-07-21T08:16:39.221Z,100533.48
2018-07-21T08:19:09.020Z,100535.32
2018-07-21T08:21:37.581Z,100533.23
2018-07-21T08:24:06.759Z,100534.05
2018-07-21T08:26:35.213Z,100501.95
2018-07-21T08:29:03.737Z,100534.22
2018-07-21T08:31:32.922Z,100529.56
2018-07-21T08:34:01.530Z,100534.79
2018-07-21T08:36:29.983Z,100531.04
2018-07-21T08:38:58.936Z,100529.72
2018-07-21T08:41:27.790Z,100532.06
2018-07-21T08:43:56.297Z,100527.22
2018-07-21T08:46:24.974Z,100523.88
2018-07-21T08:48:54.016Z,100520.88
2018-07-21T08:51:22.449Z,100514.64
2018-07-21T08:53:51.581Z,100509.20
2018-07-21T08:56:20.174Z,100505.66
2018-07-21T08:58:49.086Z,100508.72
2018-07-21T09:01:17.977Z,100512.73
2018-07-21T09:03:46.469Z,100509.71
2018-07-21T09:06:15.163Z,100506.97
2018-07-21T09:08:43.654Z,100508.38
2018-07-21T09:11:12.423Z,100505.89
2018-07-21T09:13:41.196Z,100506.16
2018-07-21T09:16:10.065Z,100507.30
2018-07-21T09:18:38.759Z,100515.05
2018-07-21T09:21:07.264Z,100512.08
2018-07-21T09:23:36.277Z,100515.41
2018-07-21T09:26:04.929Z,100508.80
2018-07-21T09:28:33.381Z,100508.69
2018-07-21T09:31:01.989Z,100506.83
2018-07-21T09:33:30.663Z,100499.12
2018-07-21T09:36:03.782Z,100498.48
2018-07-21T09:38:32.837Z,100504.89
2018-07-21T09:41:01.285Z,100499.57
2018-07-21T09:43:30.151Z,100500.07
2018-07-21T09:45:59.286Z,100494.91
2018-07-21T09:48:27.773Z,100497.69
2018-07-21T09:50:56.844Z,100501.91
2018-07-21T09:53:25.555Z,100498.72
2018-07-21T09:55:54.151Z,100504.09
2018-07-21T09:58:22.786Z,100497.98
2018-07-21T10:00:56.619Z,100501.05
2018-07-21T10:03:25.896Z,100499.25
2018-07-21T10:05:55.075Z,100496.47
2018-07-21T10:08:23.641Z,100505.63
2018-07-21T10:10:54.365Z,100504.33
2018-07-21T10:13:22.869Z,100504.26
2018-07-21T10:15:51.949Z,100505.02
2018-07-21T10:18:20.718Z,100498.65
2018-07-21T10:20:49.177Z,100500.88
2018-07-21T10:23:17.892Z,100499.97
2018-07-21T10:25:52.202Z,100502.55
2018-07-21T10:28:26.052Z,100504.93
2018-07-21T10:30:54.919Z,100502.98
2018-07-21T10:33:24.176Z,100501.65
2018-07-21T10:35:52.701Z,100496.75
2018-07-21T10:38:21.581Z,100497.28
2018-07-21T10:40:50.139Z,100491.17
2018-07-21T10:43:18.751Z,100497.38
2018-07-21T10:45:47.561Z,100491.66
2018-07-21T10:48:16.045Z,100490.08
2018-07-21T10:50:44.556Z,100485.42
2018-07-21T10:53:13.393Z,100480.20
2018-07-21T10:55:42.153Z,100484.23
2018-07-21T10:58:10.693Z,100480.20
2018-07-21T11:00:39.170Z,100475.05
2018-07-21T11:03:07.927Z,100475.91
2018-07-21T11:05:36.378Z,100475.44
2018-07-21T11:08:05.488Z,100470.16
2018-07-21T11:10:34.293Z,100469.61
2018-07-21T11:13:02.941Z,100466.25
2018-07-21T11:15:31.624Z,100461.72
2018-07-21T11:18:01.123Z,100458.31
2018-07-21T11:20:29.993Z,100460.28
2018-07-21T11:22:58.500Z,100469.43
2018-07-21T11:25:27.010Z,100473.98
2018-07-21T11:27:56.010Z,100472.44
2018-07-21T11:30:24.970Z,100470.59
2018-07-21T11:32:53.678Z,100468.09
2018-07-21T11:35:22.951Z,100463.61
2018-07-21T11:37:51.445Z,100469.47
2018-07-21T11:40:20.429Z,100472.82
2018-07-21T11:42:49.030Z,100467.00
2018-07-21T11:45:17.945Z,100464.34
2018-07-21T11:47:46.373Z,100464.55
2018-07-21T11:50:14.828Z,100453.80
2018-07-21T11:52:43.664Z,100453.22
2018-07-21T11:55:12.094Z,100450.05
2018-07-21T11:57:40.541Z,100454.42
2018-07-21T12:00:10.048Z,100448.17
2018-07-21T12:02:39.134Z,100450.66
2018-07-21T12:05:07.588Z,100444.71
2018-07-21T12:07:36.744Z,100450.02
2018-07-21T12:10:05.741Z,100441.97
2018-07-21T12:12:34.200Z,100436.03
2018-07-21T12:15:02.705Z,100431.52
2018-07-21T12:17:31.557Z,100434.98
2018-07-21T12:20:00.018Z,100426.34
2018-07-21T12:22:28.901Z,100430.11
2018-07-21T12:24:57.603Z,100425.82
2018-07-21T12:27:26.311Z,100431.94
2018-07-21T12:29:55.005Z,100429.83
2018-07-21T12:32:23.881Z,100428.22
2018-07-21T12:34:52.667Z,100424.88
2018-07-21T12:37:21.146Z,100429.45
2018-07-21T12:39:49.605Z,100429.93
2018-07-21T12:42:18.406Z,100427.78
2018-07-21T12:44:47.042Z,100428.47
2018-07-21T12:47:15.515Z,100426.80
2018-07-21T12:49:44.676Z,100440.05
2018-07-21T12:52:13.149Z,100441.55
2018-07-21T12:54:44.511Z,100438.75
2018-07-21T12:57:13.433Z,100430.46
2018-07-21T12:59:41.957Z,100336.20
2018-07-21T13:02:10.457Z,100438.25
2018-07-21T13:04:38.969Z,100428.62
2018-07-21T13:07:08.236Z,100438.28
2018-07-21T13:09:36.756Z,100443.57
2018-07-21T13:12:05.518Z,100443.48
2018-07-21T13:14:34.137Z,100442.52
2018-07-21T13:17:05.189Z,100442.11
2018-07-21T13:19:34.001Z,100440.97
2018-07-21T13:22:02.926Z,100440.20
2018-07-21T13:24:31.601Z,100429.77
2018-07-21T13:27:00.072Z,100435.80
2018-07-21T13:29:29.129Z,100439.36
2018-07-21T13:31:57.839Z,100439.16
2018-07-21T13:34:26.329Z,100426.87
2018-07-21T13:36:55.222Z,100429.72
2018-07-21T13:39:23.692Z,100436.93
2018-07-21T13:41:52.374Z,100434.69
2018-07-21T13:44:21.115Z,100428.00
2018-07-21T13:46:49.581Z,100428.09
2018-07-21T13:49:18.029Z,100427.02
2018-07-21T13:51:47.063Z,100421.95
2018-07-21T13:54:15.833Z,100420.38
2018-07-21T13:56:44.315Z,100411.73
2018-07-21T13:59:12.889Z,100410.66
2018-07-21T14:01:42.217Z,100408.34
2018-07-21T14:04:10.673Z,100409.33
2018-07-21T14:06:39.417Z,100410.27
2018-07-21T14:09:09.237Z,100403.86
2018-07-21T14:11:38.426Z,100401.67
2018-07-21T14:14:07.565Z,100395.93
2018-07-21T14:16:36.477Z,100397.68
2018-07-21T14:19:05.446Z,100401.62
2018-07-21T14:21:34.361Z,100400.60
2018-07-21T14:24:03.461Z,100398.54
2018-07-21T14:26:32.548Z,100392.84
2018-07-21T14:29:01.880Z,100396.24
2018-07-21T14:31:30.341Z,100400.09
2018-07-21T14:33:58.985Z,100396.95
2018-07-21T14:36:28.342Z,100389.00
2018-07-21T14:38:56.759Z,100389.82
2018-07-21T14:41:25.201Z,100387.86
2018-07-21T14:43:54.307Z,100377.84
2018-07-21T14:46:23.639Z,100375.61
2018-07-21T14:48:53.065Z,100371.39
2018-07-21T14:51:25.557Z,100366.55
2018-07-21T14:53:54.761Z,100362.22
2018-07-21T14:56:23.653Z,100355.61
2018-07-21T14:58:53.213Z,100369.66
2018-07-21T15:01:22.584Z,100370.38
2018-07-21T15:03:57.766Z,100371.75
2018-07-21T15:06:26.585Z,100370.64
2018-07-21T15:08:55.110Z,100365.84
2018-07-21T15:11:23.845Z,100370.00
2018-07-21T15:13:52.686Z,100369.02
2018-07-21T15:16:22.278Z,100362.65
2018-07-21T15:18:51.091Z,100367.98
2018-07-21T15:21:20.073Z,100374.22
2018-07-21T15:23:48.529Z,100374.09
2018-07-21T15:26:17.545Z,100370.84
2018-07-21T15:28:46.749Z,100343.85
2018-07-21T15:31:15.300Z,100365.42
2018-07-21T15:33:45.743Z,100359.34
2018-07-21T15:36:15.057Z,100359.05
2018-07-21T15:38:43.567Z,100357.85
2018-07-21T15:41:12.019Z,100346.56
2018-07-21T15:43:41.237Z,100345.87
2018-07-21T15:46:09.698Z,100349.44
2018-07-21T15:48:38.144Z,100351.81
2018-07-21T15:51:07.147Z,100344.09
2018-07-21T15:53:35.597Z,100349.48
2018-07-21T15:56:04.066Z,100345.83
2018-07-21T15:58:33.248Z,100341.44
2018-07-21T16:01:01.706Z,100350.45
2018-07-21T16:03:30.194Z,100347.89
2018-07-21T16:05:59.462Z,100338.70
2018-07-21T16:08:34.800Z,100343.78
2018-07-21T16:11:03.317Z,100337.16
2018-07-21T16:13:32.254Z,100337.20
2018-07-21T16:16:00.788Z,100330.34
2018-07-21T16:18:29.807Z,100335.38
2018-07-21T16:21:00.576Z,100328.44
2018-07-21T16:23:29.514Z,100324.00
2018-07-21T16:26:05.200Z,100321.32
2018-07-21T16:28:33.974Z,100325.88
2018-07-21T16:31:02.435Z,100329.82
2018-07-21T16:33:31.270Z,100324.27
2018-07-21T16:35:59.993Z,100323.33
2018-07-21T16:38:28.958Z,100334.65
2018-07-21T16:40:57.417Z,100330.21
2018-07-21T16:43:26.081Z,100325.85
2018-07-21T16:45:55.907Z,100321.98
2018-07-21T16:48:24.676Z,100324.47
2018-07-21T16:50:53.871Z,100325.34
2018-07-21T16:53:24.013Z,100317.30
2018-07-21T16:55:52.458Z,100320.51
2018-07-21T16:58:21.250Z,100320.45
2018-07-21T17:00:50.088Z,100325.09
2018-07-21T17:03:18.534Z,100302.46
2018-07-21T17:05:47.325Z,100329.34
2018-07-21T17:08:16.465Z,100318.81
2018-07-21T17:10:45.809Z,100330.16
2018-07-21T17:13:14.562Z,100323.00
2018-07-21T17:15:43.294Z,100333.50
2018-07-21T17:18:11.975Z,100330.79
2018-07-21T17:20:40.749Z,100337.81
2018-07-21T17:23:09.472Z,100338.44
2018-07-21T17:25:38.358Z,100335.42
2018-07-21T17:28:07.333Z,100335.96
2018-07-21T17:30:35.808Z,100339.45
2018-07-21T17:33:04.326Z,100333.59
2018-07-21T17:35:33.065Z,100324.50
2018-07-21T17:38:01.990Z,100317.73
2018-07-21T17:40:30.733Z,100322.80
2018-07-21T17:42:59.733Z,100324.52
2018-07-21T17:45:28.392Z,100333.19
2018-07-21T17:47:56.825Z,100339.05
2018-07-21T17:50:25.384Z,100343.81
2018-07-21T17:53:01.337Z,100339.18
2018-07-21T17:55:29.977Z,100336.05
2018-07-21T17:57:59.021Z,100339.94
2018-07-21T18:00:27.754Z,100345.64
2018-07-21T18:02:56.219Z,100343.47
2018-07-21T18:05:25.218Z,100337.98
2018-07-21T18:07:53.953Z,100326.75
2018-07-21T18:10:22.708Z,100332.03
2018-07-21T18:12:51.388Z,100329.20
2018-07-21T18:15:20.161Z,100333.00
2018-07-21T18:17:49.001Z,100327.41
2018-07-21T18:20:17.638Z,100329.41
2018-07-21T18:22:46.509Z,100338.23
2018-07-21T18:25:15.424Z,100329.14
2018-07-21T18:27:43.863Z,100333.29
2018-07-21T18:30:12.426Z,100340.14
2018-07-21T18:32:42.661Z,100332.80
2018-07-21T18:35:11.329Z,100330.23
2018-07-21T18:37:40.001Z,100324.59
2018-07-21T18:40:08.529Z,100330.59
2018-07-21T18:42:37.380Z,100339.63
2018-07-21T18:45:06.625Z,100346.45
2018-07-21T18:47:35.351Z,100355.07
2018-07-21T18:50:04.443Z,100360.02
2018-07-21T18:52:33.317Z,100371.91
2018-07-21T18:55:01.822Z,100389.85
2018-07-21T18:57:31.061Z,100399.88
2018-07-21T18:59:59.903Z,100403.68
2018-07-21T19:02:29.189Z,100408.17
2018-07-21T19:04:58.063Z,100403.58
2018-07-21T19:07:26.815Z,100399.78
2018-07-21T19:09:55.667Z,100402.05
2018-07-21T19:12:30.012Z,100398.61
2018-07-21T19:14:58.506Z,100407.17
2018-07-21T19:17:26.937Z,100399.01
2018-07-21T19:20:00.689Z,100396.61
2018-07-21T19:22:29.697Z,100401.20
2018-07-21T19:24:59.919Z,100400.09
2018-07-21T19:27:33.133Z,100398.91
2018-07-21T19:30:02.493Z,100403.20
2018-07-21T19:32:38.165Z,100399.37
2018-07-21T19:35:07.057Z,100396.03
2018-07-21T19:37:40.895Z,100408.70
2018-07-21T19:40:09.770Z,100414.22
2018-07-21T19:42:38.497Z,100416.08
2018-07-21T19:45:06.966Z,100414.02
2018-07-21T19:47:35.779Z,100410.63
2018-07-21T19:50:04.437Z,100405.06
2018-07-21T19:52:33.313Z,100404.55
2018-07-21T19:55:02.366Z,100401.19
2018-07-21T19:57:31.169Z,100413.84
2018-07-21T20:00:00.081Z,100417.09
2018-07-21T20:02:28.807Z,100413.19
2018-07-21T20:04:57.286Z,100414.48
2018-07-21T20:07:26.108Z,100416.13
2018-07-21T20:09:55.772Z,100412.72
2018-07-21T20:12:25.328Z,100415.94
2018-07-21T20:14:53.896Z,100422.20
2018-07-21T20:17:23.395Z,100423.23
2018-07-21T20:19:51.764Z,100424.28
2018-07-21T20:22:20.249Z,100419.48
2018-07-21T20:24:48.821Z,100419.48
2018-07-21T20:27:19.413Z,100417.64
2018-07-21T20:29:47.884Z,100421.56
2018-07-21T20:32:16.557Z,100426.95
2018-07-21T20:34:46.394Z,100428.75
2018-07-21T20:37:15.734Z,100428.88
2018-07-21T20:42:13.010Z,100431.80
2018-07-21T20:44:41.498Z,100436.82
2018-07-21T20:47:10.309Z,100434.23
2018-07-21T20:49:40.216Z,100436.06
2018-07-21T20:52:09.565Z,100436.66
2018-07-21T20:54:38.134Z,100443.87
2018-07-21T20:57:06.971Z,100449.80
2018-07-21T20:59:35.466Z,100442.41
2018-07-21T21:02:03.941Z,100451.41
2018-07-21T21:04:32.678Z,100459.55
2018-07-21T21:07:01.192Z,100460.13
2018-07-21T21:09:29.753Z,100462.83
2018-07-21T21:11:58.475Z,100461.61
2018-07-21T21:14:27.189Z,100463.10
2018-07-21T21:16:56.074Z,100470.27
2018-07-21T21:19:24.554Z,100463.60
2018-07-21T21:21:53.261Z,100467.15
2018-07-21T21:24:22.021Z,100470.27
2018-07-21T21:26:50.561Z,100466.73
2018-07-21T21:29:19.715Z,100463.18
2018-07-21T21:31:48.693Z,100472.56
2018-07-21T21:34:17.121Z,100470.00
2018-07-21T21:36:45.611Z,100478.09
2018-07-21T21:39:14.765Z,100479.50
2018-07-21T21:41:43.441Z,100484.06
2018-07-21T21:44:12.245Z,100495.23
2018-07-21T21:46:41.113Z,100486.88
2018-07-21T21:49:09.563Z,100490.95
2018-07-21T21:51:38.023Z,100490.53
2018-07-21T21:54:07.171Z,100493.31
2018-07-21T21:56:35.660Z,100484.08
2018-07-21T21:59:04.225Z,100482.32
2018-07-21T22:01:33.081Z,100490.85
2018-07-21T22:04:01.812Z,100486.91
2018-07-21T22:06:30.458Z,100484.28
2018-07-21T22:08:58.909Z,100494.56
2018-07-21T22:11:27.817Z,100491.09
2018-07-21T22:13:56.563Z,100494.67
2018-07-21T22:16:24.991Z,100491.13
2018-07-21T22:18:54.226Z,100487.19
2018-07-21T22:21:23.549Z,100491.71
2018-07-21T22:23:52.608Z,100487.78
2018-07-21T22:26:21.099Z,100491.48
2018-07-21T22:28:50.073Z,100490.70
2018-07-21T22:31:19.108Z,100495.19
2018-07-21T22:33:47.767Z,100491.71
2018-07-21T22:36:16.541Z,100497.59
2018-07-21T22:38:45.745Z,100495.39
2018-07-21T22:41:14.201Z,100496.75
2018-07-21T22:43:42.718Z,100491.05
2018-07-21T22:46:12.343Z,100496.52
2018-07-21T22:48:40.794Z,100494.87
2018-07-21T22:51:09.285Z,100494.58
2018-07-21T22:53:38.073Z,100499.14
2018-07-21T22:56:07.229Z,100497.33
2018-07-21T22:58:35.707Z,100503.62
2018-07-21T23:01:04.863Z,100502.38
2018-07-21T23:03:33.591Z,100507.28
2018-07-21T23:06:02.086Z,100509.13
2018-07-21T23:08:30.793Z,100504.28
2018-07-21T23:10:59.241Z,100502.50
2018-07-21T23:13:27.954Z,100510.55
2018-07-21T23:15:56.848Z,100505.22
2018-07-21T23:18:25.455Z,100504.38
2018-07-21T23:20:54.415Z,100511.94
2018-07-21T23:23:23.220Z,100503.97
2018-07-21T23:25:52.896Z,100498.28
2018-07-21T23:28:21.965Z,100504.98
2018-07-21T23:30:51.129Z,100508.16
2018-07-21T23:33:19.764Z,100504.25
2018-07-21T23:35:48.681Z,100503.91
2018-07-21T23:38:17.558Z,100508.39
2018-07-21T23:40:46.023Z,100513.80
2018-07-21T23:43:14.722Z,100512.57
2018-07-21T23:45:43.533Z,100513.55
2018-07-21T23:48:11.981Z,100518.95
2018-07-21T23:50:40.486Z,100521.26
2018-07-21T23:53:09.356Z,100520.45
2018-07-21T23:55:37.792Z,100521.90
2018-07-21T23:58:07.031Z,100519.33
